createdAt,value
2022-12-23T00:18:29.543Z,19.1
2022-12-23T00:48:29.550Z,19.1
2022-12-23T01:18:29.499Z,19.0
2022-12-23T01:48:29.544Z,19.0
2022-12-23T02:18:29.513Z,18.9
2022-12-23T02:48:29.532Z,18.9
2022-12-23T03:18:29.515Z,18.8
2022-12-23T03:48:29.529Z,18.8
2022-12-23T04:18:29.514Z,18.8
2022-12-23T04:48:29.498Z,18.9
2022-12-23T05:18:29.506Z,19.0
2022-12-23T05:48:29.502Z,19.1
2022-12-23T06:18:29.512Z,19.3
2022-12-23T06:48:29.558Z,19.4
2022-12-23T07:18:29.302Z,19.4
2022-12-23T07:48:29.495Z,19.5
2022-12-23T08:18:29.626Z,19.6
2022-12-23T08:48:29.499Z,19.6
2022-12-23T09:18:29.544Z,19.8
2022-12-23T09:48:29.516Z,19.8
2022-12-23T10:18:29.208Z,19.8
2022-12-23T10:48:29.395Z,19.9
2022-12-23T11:18:29.680Z,19.9
2022-12-23T11:48:29.659Z,19.9
2022-12-23T12:18:29.376Z,19.9
2022-12-23T12:48:29.701Z,19.8
2022-12-23T13:18:29.682Z,19.8
2022-12-23T13:48:29.662Z,19.9
2022-12-23T14:18:29.718Z,19.9
2022-12-23T14:48:29.740Z,20.0
2022-12-23T15:18:29.761Z,20.0
2022-12-23T15:48:29.594Z,20.0
2022-12-23T16:18:29.643Z,20.0
2022-12-23T16:48:29.697Z,20.0
2022-12-23T17:18:29.653Z,20.0
2022-12-23T17:48:29.611Z,20.0
2022-12-23T18:18:29.536Z,20.0
2022-12-23T18:48:29.489Z,20.0
2022-12-23T19:18:29.484Z,20.0
2022-12-23T19:48:29.563Z,20.0
2022-12-23T20:18:29.482Z,20.0
2022-12-23T20:48:29.465Z,19.8
2022-12-23T21:18:29.478Z,19.7
2022-12-23T21:48:29.492Z,19.6
2022-12-23T22:18:29.477Z,19.5
2022-12-23T22:48:29.525Z,19.5
2022-12-23T23:18:29.462Z,19.4
2022-12-23T23:48:29.488Z,19.3
